Time;durP1;ratioP1;P1;durP2;ratioP2;P2;SDS_P1;SDS_P2;PMS_P1;PMS_P2;Temp;Humidity;BMP_temperature;BMP_pressure;BME280_temperature;BME280_humidity;BME280_pressure;Samples;Min_cycle;Max_cycle;Signal;HPM_P1;HPM_P2
2023/06/23 00:00:20;;;;;;;12.43;6.28;;;;;;;17.60;100.00;101683.91;5035413;28;20164;-63
2023/06/23 00:02:48;;;;;;;12.77;6.10;;;;;;;17.60;100.00;101681.16;5036689;28;20096;-63
2023/06/23 00:05:16;;;;;;;10.68;6.18;;;;;;;17.58;100.00;101686.13;5035576;28;20053;-63
2023/06/23 00:07:44;;;;;;;11.75;6.57;;;;;;;17.55;100.00;101684.78;5036187;28;20461;-63
2023/06/23 00:10:11;;;;;;;13.05;6.65;;;;;;;17.56;100.00;101691.13;5035760;28;20124;-63
2023/06/23 00:12:41;;;;;;;11.45;6.38;;;;;;;17.54;100.00;101691.41;5036032;28;20053;-63
2023/06/23 00:15:11;;;;;;;12.68;6.45;;;;;;;17.55;100.00;101689.47;5037093;28;20052;-64
2023/06/23 00:17:41;;;;;;;11.73;7.40;;;;;;;17.55;100.00;101689.47;5036193;28;20076;-63
2023/06/23 00:20:12;;;;;;;11.48;6.47;;;;;;;17.53;100.00;101698.03;5034009;28;20072;-64
2023/06/23 00:22:40;;;;;;;10.73;6.47;;;;;;;17.51;100.00;101711.31;5051676;28;20049;-63
2023/06/23 00:25:12;;;;;;;11.90;6.65;;;;;;;17.52;100.00;101712.13;5036305;28;20116;-64
2023/06/23 00:27:41;;;;;;;12.05;7.10;;;;;;;17.53;100.00;101702.72;5036607;28;20053;-63
2023/06/23 00:30:11;;;;;;;11.82;7.15;;;;;;;17.52;100.00;101714.88;5034402;28;20493;-64
2023/06/23 00:32:43;;;;;;;14.18;7.05;;;;;;;17.49;100.00;101708.00;5036325;28;20057;-63
2023/06/23 00:35:14;;;;;;;10.90;6.13;;;;;;;17.46;100.00;101717.69;5034453;28;20132;-65
2023/06/23 00:37:43;;;;;;;10.95;6.35;;;;;;;17.46;100.00;101725.97;5036289;28;20050;-63
2023/06/23 00:40:11;;;;;;;11.57;6.97;;;;;;;17.46;100.00;101728.72;5034435;28;20068;-64
2023/06/23 00:42:46;;;;;;;11.43;6.15;;;;;;;17.45;100.00;101726.25;5037162;28;20068;-65
2023/06/23 00:45:15;;;;;;;11.00;6.28;;;;;;;17.45;100.00;101735.31;5033377;28;20068;-66
2023/06/23 00:47:44;;;;;;;12.13;6.65;;;;;;;17.43;100.00;101726.50;5036033;28;20049;-65
2023/06/23 00:50:17;;;;;;;13.82;6.88;;;;;;;17.41;100.00;101734.28;5034382;28;20148;-65
2023/06/23 00:52:49;;;;;;;13.77;6.95;;;;;;;17.40;100.00;101735.38;5014509;28;20089;-66
2023/06/23 00:55:20;;;;;;;12.65;6.90;;;;;;;17.40;100.00;101740.88;5019469;28;20052;-62
2023/06/23 00:57:51;;;;;;;9.80;6.55;;;;;;;17.40;100.00;101740.88;5034641;28;20045;-64
2023/06/23 01:00:20;;;;;;;10.82;6.57;;;;;;;17.40;100.00;101753.84;5035999;28;20049;-64
2023/06/23 01:02:51;;;;;;;10.82;6.30;;;;;;;17.38;100.00;101751.38;5033871;28;20048;-63
2023/06/23 01:05:23;;;;;;;11.82;7.22;;;;;;;17.36;100.00;101761.84;5034659;28;20049;-63
2023/06/23 01:08:16;;;;;;;13.75;7.60;;;;;;;17.30;100.00;101765.78;4999572;28;20045;-65
2023/06/23 01:11:06;;;;;;;10.10;7.00;;;;;;;17.25;100.00;101769.41;5019672;28;20107;-64
2023/06/23 01:13:37;;;;;;;13.45;7.70;;;;;;;17.23;100.00;101770.81;5017345;28;20107;-64
2023/06/23 01:16:32;;;;;;;12.07;7.53;;;;;;;17.19;100.00;101773.31;5034786;28;20045;-62
2023/06/23 01:19:25;;;;;;;14.18;8.23;;;;;;;17.17;100.00;101777.47;5019003;28;20099;-64
2023/06/23 01:21:59;;;;;;;15.20;7.90;;;;;;;17.16;100.00;101782.16;5038122;28;20068;-62
2023/06/23 01:24:33;;;;;;;12.82;8.20;;;;;;;17.14;100.00;101789.06;5022188;28;20066;-63
2023/06/23 01:27:33;;;;;;;12.93;8.27;;;;;;;17.13;100.00;101784.69;5033299;28;20045;-61
2023/06/23 01:30:05;;;;;;;12.38;8.35;;;;;;;17.11;100.00;101782.22;5022794;28;20061;-64
2023/06/23 01:32:51;;;;;;;13.05;8.35;;;;;;;17.11;100.00;101771.19;5035535;28;20049;-65
2023/06/23 01:35:24;;;;;;;15.63;9.15;;;;;;;17.09;100.00;101770.66;5024934;28;20505;-59
2023/06/23 01:37:57;;;;;;;13.32;8.77;;;;;;;17.09;100.00;101781.66;5046699;28;20041;-62
2023/06/23 01:40:25;;;;;;;14.65;8.68;;;;;;;17.09;100.00;101786.38;5024857;28;20080;-63
2023/06/23 01:42:56;;;;;;;13.32;9.25;;;;;;;17.06;100.00;101790.50;5035971;28;20453;-63
2023/06/23 01:45:27;;;;;;;13.35;9.43;;;;;;;17.06;100.00;101795.22;5034079;28;20555;-64
2023/06/23 01:47:58;;;;;;;15.45;9.48;;;;;;;17.05;100.00;101802.63;5033719;28;20084;-64
2023/06/23 01:50:28;;;;;;;13.23;9.60;;;;;;;17.06;100.00;101795.22;5033678;28;20115;-64
2023/06/23 01:52:56;;;;;;;15.35;10.35;;;;;;;17.04;100.00;101803.75;5033435;28;20042;-64
2023/06/23 01:55:24;;;;;;;17.52;10.35;;;;;;;17.02;100.00;101808.72;5017290;28;20084;-64
2023/06/23 01:57:53;;;;;;;14.88;10.73;;;;;;;16.99;100.00;101810.13;5033163;28;20080;-65
2023/06/23 02:00:22;;;;;;;15.32;10.63;;;;;;;16.98;100.00;101819.50;5017044;28;20045;-62
2023/06/23 02:02:51;;;;;;;16.23;11.23;;;;;;;16.97;100.00;101817.00;5032911;28;20055;-64
2023/06/23 02:05:22;;;;;;;15.25;11.52;;;;;;;16.95;100.00;101825.56;5033598;28;20050;-63
2023/06/23 02:07:52;;;;;;;18.45;11.70;;;;;;;16.93;100.00;101822.28;5017326;28;20560;-63
2023/06/23 02:10:20;;;;;;;16.58;11.43;;;;;;;16.87;100.00;101823.41;5032714;28;20501;-63
2023/06/23 02:12:49;;;;;;;19.50;11.85;;;;;;;16.86;100.00;101829.19;5007923;28;20140;-63
2023/06/23 02:15:19;;;;;;;18.42;11.23;;;;;;;16.86;100.00;101821.78;5034592;28;20045;-63
2023/06/23 02:17:48;;;;;;;16.55;11.85;;;;;;;16.85;100.00;101825.63;5016772;28;20485;-62
2023/06/23 02:20:17;;;;;;;17.67;11.27;;;;;;;16.85;100.00;101828.38;5032821;28;20135;-64
2023/06/23 02:22:49;;;;;;;18.30;11.20;;;;;;;16.85;100.00;101839.41;5032224;28;20064;-63
2023/06/23 02:25:18;;;;;;;16.58;12.05;;;;;;;16.81;100.00;101847.41;5017255;28;20429;-63
2023/06/23 02:27:46;;;;;;;17.92;11.50;;;;;;;16.82;100.00;101848.22;5034163;28;20156;-64
2023/06/23 02:30:14;;;;;;;17.75;11.73;;;;;;;16.83;100.00;101849.88;5033543;28;20446;-63
2023/06/23 02:32:41;;;;;;;16.13;10.93;;;;;;;16.83;100.00;101842.41;5032825;28;20486;-64
2023/06/23 02:35:13;;;;;;;14.95;11.38;;;;;;;16.84;100.00;101857.03;5032451;28;20076;-63
2023/06/23 02:37:49;;;;;;;21.10;11.55;;;;;;;16.84;100.00;101859.78;5032558;28;20413;-62
2023/06/23 02:40:20;;;;;;;14.40;11.13;;;;;;;16.83;100.00;101866.38;5016494;28;20088;-64
2023/06/23 02:43:17;;;;;;;20.00;11.52;;;;;;;16.81;100.00;101860.31;5032256;28;20045;-62
2023/06/23 02:45:49;;;;;;;16.58;11.75;;;;;;;16.78;100.00;101864.47;5030360;28;20079;-63
2023/06/23 02:48:20;;;;;;;17.98;12.20;;;;;;;16.77;100.00;101867.50;5032461;28;20124;-63
2023/06/23 02:50:48;;;;;;;17.70;12.50;;;;;;;16.73;100.00;101877.41;5032393;28;20453;-63
2023/06/23 02:53:24;;;;;;;19.88;12.90;;;;;;;16.68;100.00;101871.94;5016268;28;20069;-63
2023/06/23 02:56:03;;;;;;;16.02;12.35;;;;;;;16.65;100.00;101878.84;5018586;28;20069;-63
2023/06/23 02:58:31;;;;;;;17.17;12.30;;;;;;;16.64;100.00;101881.88;5016507;28;20125;-64
2023/06/23 03:01:04;;;;;;;17.98;12.02;;;;;;;16.64;100.00;101884.63;5032769;28;20116;-62
2023/06/23 03:03:36;;;;;;;16.65;12.68;;;;;;;16.60;100.00;101874.19;4997829;28;20079;-63
2023/06/23 03:06:04;;;;;;;18.23;13.70;;;;;;;16.58;100.00;101879.16;5029254;28;20056;-62
2023/06/23 03:08:32;;;;;;;18.98;13.50;;;;;;;16.56;100.00;101883.28;5019517;28;20065;-63
2023/06/23 03:11:02;;;;;;;17.42;13.15;;;;;;;16.58;100.00;101887.41;5042916;28;20050;-63
2023/06/23 03:13:30;;;;;;;17.70;13.65;;;;;;;16.59;100.00;101880.78;5030313;28;20049;-63
2023/06/23 03:16:00;;;;;;;16.92;13.32;;;;;;;16.59;100.00;101883.53;5033685;28;20064;-64
2023/06/23 03:18:29;;;;;;;21.27;14.00;;;;;;;16.57;100.00;101884.91;5032003;28;20095;-64
2023/06/23 03:20:58;;;;;;;19.40;13.80;;;;;;;16.56;100.00;101897.88;5031842;28;20132;-64
2023/06/23 03:23:27;;;;;;;17.17;13.27;;;;;;;16.55;100.00;101892.66;5030614;28;20124;-65
2023/06/23 03:25:55;;;;;;;20.42;15.77;;;;;;;16.52;100.00;101905.03;5015701;28;20120;-64
2023/06/23 03:28:31;;;;;;;20.08;15.20;;;;;;;16.48;100.00;101900.41;5032071;28;20096;-63
2023/06/23 03:31:08;;;;;;;21.05;15.63;;;;;;;16.46;100.00;101911.66;5031951;28;20045;-63
2023/06/23 03:33:38;;;;;;;;;;;;;;;16.46;100.00;101916.34;5030184;28;20139;-62
2023/06/23 03:36:13;;;;;;;21.25;15.50;;;;;;;16.47;100.00;101910.56;5065193;28;20380;-63
2023/06/23 03:39:05;;;;;;;25.27;16.90;;;;;;;16.52;100.00;101909.72;5031803;28;20080;-62
2023/06/23 03:41:33;;;;;;;21.67;16.45;;;;;;;16.53;100.00;101917.69;5031672;28;20041;-64
2023/06/23 03:44:30;;;;;;;21.75;15.68;;;;;;;16.56;100.00;101928.13;5030774;28;20498;-64
2023/06/23 03:47:00;;;;;;;22.63;16.38;;;;;;;16.56;100.00;101922.63;5046485;28;20115;-64
2023/06/23 03:49:31;;;;;;;22.92;16.80;;;;;;;16.57;100.00;101934.44;5012059;28;20145;-64
2023/06/23 03:52:00;;;;;;;19.40;16.08;;;;;;;16.56;100.00;101932.81;5028146;28;20121;-64
2023/06/23 03:54:28;;;;;;;22.48;17.50;;;;;;;16.56;100.00;101932.81;5031952;28;20128;-64
2023/06/23 03:56:57;;;;;;;24.38;18.13;;;;;;;16.56;100.00;101930.88;5016361;28;20108;-63
2023/06/23 03:59:26;;;;;;;24.75;18.48;;;;;;;16.52;100.00;101935.28;5032201;28;20072;-63
2023/06/23 04:01:55;;;;;;;24.40;18.60;;;;;;;16.53;100.00;101933.38;5030247;28;20041;-62
2023/06/23 04:04:24;;;;;;;22.23;18.13;;;;;;;16.52;100.00;101929.78;5029817;28;20460;-64
2023/06/23 04:06:52;;;;;;;24.77;18.63;;;;;;;16.52;100.00;101927.03;5011474;28;20127;-64
2023/06/23 04:09:20;;;;;;;23.83;19.65;;;;;;;16.52;100.00;101935.28;5031115;28;20045;-62
2023/06/23 04:11:49;;;;;;;22.33;18.73;;;;;;;16.55;100.00;101936.69;5031382;28;20053;-64
2023/06/23 04:14:18;;;;;;;25.35;19.00;;;;;;;16.54;100.00;101952.34;5031424;28;20054;-64
2023/06/23 04:16:46;;;;;;;25.48;20.27;;;;;;;16.53;100.00;101947.97;5030321;28;20542;-62
2023/06/23 04:19:14;;;;;;;23.20;19.65;;;;;;;16.54;100.00;101949.59;5032311;28;20084;-64
2023/06/23 04:21:43;;;;;;;26.05;20.60;;;;;;;16.55;100.00;101953.19;5034551;28;20069;-63
2023/06/23 04:24:11;;;;;;;25.33;19.15;;;;;;;16.55;100.00;101947.69;5034836;28;20124;-64
2023/06/23 04:26:40;;;;;;;25.58;20.73;;;;;;;16.56;100.00;101955.63;5034047;28;20053;-64
2023/06/23 04:29:10;;;;;;;25.08;20.58;;;;;;;16.57;100.00;101953.72;5035054;28;20043;-64
2023/06/23 04:31:39;;;;;;;24.40;20.73;;;;;;;16.56;100.00;101955.63;5035332;28;20045;-64
2023/06/23 04:34:09;;;;;;;29.08;20.60;;;;;;;16.58;100.00;101958.13;5018556;28;20525;-65
2023/06/23 04:36:44;;;;;;;26.25;19.38;;;;;;;16.59;100.00;101966.06;5033833;28;20486;-65
2023/06/23 04:39:19;;;;;;;30.05;21.42;;;;;;;16.63;100.00;101973.78;5035003;28;20091;-63
2023/06/23 04:41:49;;;;;;;26.55;20.42;;;;;;;16.64;100.00;101975.44;5040368;28;20053;-64
2023/06/23 04:44:43;;;;;;;28.27;21.55;;;;;;;16.64;100.00;101975.44;5036808;28;20099;-64
2023/06/23 04:47:12;;;;;;;25.73;20.88;;;;;;;16.64;100.00;101973.50;5031838;28;20049;-63
2023/06/23 04:49:40;;;;;;;28.58;23.17;;;;;;;16.65;100.00;101977.09;5029774;28;20049;-63
2023/06/23 04:52:09;;;;;;;30.95;23.70;;;;;;;16.64;100.00;101979.00;5034496;28;20103;-64
2023/06/23 04:54:41;;;;;;;28.75;21.50;;;;;;;16.61;100.00;101980.38;5034621;28;20132;-63
2023/06/23 04:57:12;;;;;;;29.58;23.45;;;;;;;16.61;100.00;101988.63;5034889;28;20115;-65
2023/06/23 04:59:41;;;;;;;29.85;24.00;;;;;;;16.61;100.00;101979.56;5034267;28;20520;-64
2023/06/23 05:02:11;;;;;;;27.20;21.45;;;;;;;16.61;100.00;101979.56;5033636;28;20042;-64
2023/06/23 05:04:42;;;;;;;26.13;21.20;;;;;;;16.64;100.00;101991.94;4668953;28;10000355;-67
2023/06/23 05:07:12;;;;;;;28.98;22.30;;;;;;;16.63;100.00;101993.88;5019902;28;20085;-67
2023/06/23 05:09:42;;;;;;;31.55;25.42;;;;;;;16.63;100.00;101993.06;5030473;28;20079;-65
2023/06/23 05:12:11;;;;;;;31.55;23.77;;;;;;;16.65;100.00;101990.84;5030360;28;20053;-64
2023/06/23 05:14:40;;;;;;;31.52;24.60;;;;;;;16.68;100.00;101995.78;5032171;28;20057;-65
2023/06/23 05:17:11;;;;;;;31.65;25.77;;;;;;;16.69;100.00;102001.03;5031670;28;20091;-64
2023/06/23 05:19:41;;;;;;;32.15;25.20;;;;;;;16.66;100.00;101992.50;5030050;28;20052;-64
2023/06/23 05:22:13;;;;;;;31.88;25.10;;;;;;;16.67;100.00;102000.47;5031476;28;20107;-66
2023/06/23 05:24:45;;;;;;;32.92;24.77;;;;;;;16.70;100.00;101999.91;5030940;28;20050;-64
2023/06/23 05:27:14;;;;;;;30.65;24.63;;;;;;;16.72;100.00;102008.72;5029794;28;20099;-64
2023/06/23 05:29:44;;;;;;;31.65;23.20;;;;;;;16.76;100.00;102008.97;5029314;28;20053;-63
2023/06/23 05:32:14;;;;;;;28.58;22.65;;;;;;;16.80;100.00;102010.91;5028847;28;20073;-64
2023/06/23 05:34:45;;;;;;;33.67;25.30;;;;;;;16.84;100.00;102013.94;5051073;28;20433;-63
2023/06/23 05:37:14;;;;;;;31.77;25.25;;;;;;;16.83;100.00;102020.53;5029282;28;20132;-63
2023/06/23 05:39:42;;;;;;;35.42;27.80;;;;;;;16.85;100.00;102023.81;5027866;28;20477;-63
2023/06/23 05:42:10;;;;;;;31.65;24.40;;;;;;;16.86;100.00;102025.50;5025514;28;20048;-63
2023/06/23 05:44:38;;;;;;;35.97;25.73;;;;;;;16.88;100.00;102028.75;5031331;28;20136;-63
2023/06/23 05:47:18;;;;;;;32.88;26.55;;;;;;;16.92;100.00;102032.59;5030133;28;20057;-64
2023/06/23 05:49:46;;;;;;;30.77;24.88;;;;;;;16.94;100.00;102032.34;5030124;28;20528;-64
2023/06/23 05:52:18;;;;;;;29.23;21.30;;;;;;;16.98;100.00;102031.50;5029245;28;20053;-62
2023/06/23 05:54:47;;;;;;;36.28;26.83;;;;;;;17.00;100.00;102043.06;5031443;28;20057;-63
2023/06/23 05:57:41;;;;;;;35.40;27.52;;;;;;;17.03;100.00;102047.19;5038475;28;20061;-61
2023/06/23 06:00:11;;;;;;;34.75;25.27;;;;;;;17.04;100.00;102043.31;5037720;28;20057;-65
2023/06/23 06:02:45;;;;;;;34.83;26.27;;;;;;;17.07;100.00;102051.00;5028927;28;20041;-64
2023/06/23 06:05:17;;;;;;;35.58;26.27;;;;;;;17.10;100.00;102053.19;5031392;28;20061;-63
2023/06/23 06:07:46;;;;;;;36.28;28.58;;;;;;;17.10;100.00;102055.09;5038099;28;20632;-64
2023/06/23 06:10:15;;;;;;;38.67;28.63;;;;;;;17.09;100.00;102054.28;5037801;28;20060;-64
2023/06/23 06:12:45;;;;;;;34.88;25.67;;;;;;;17.13;100.00;102057.31;5029588;28;20057;-63
2023/06/23 06:15:18;;;;;;;34.20;27.75;;;;;;;17.16;100.00;102062.25;4665411;28;10000044;-64
2023/06/23 06:17:46;;;;;;;36.05;26.55;;;;;;;17.15;100.00;102066.09;5026429;28;20073;-65
2023/06/23 06:20:14;;;;;;;36.15;25.65;;;;;;;17.14;100.00;102065.28;5031881;28;20053;-64
2023/06/23 06:22:44;;;;;;;32.55;25.75;;;;;;;17.16;100.00;102070.53;5013223;28;20069;-64
2023/06/23 06:25:13;;;;;;;34.25;26.40;;;;;;;17.19;100.00;102069.94;5029619;28;20053;-63
2023/06/23 06:27:43;;;;;;;34.13;25.77;;;;;;;17.24;100.00;102069.91;5023500;28;20540;-63
2023/06/23 06:30:11;;;;;;;35.13;25.48;;;;;;;17.32;100.00;102077.63;5016637;28;20406;-63
2023/06/23 06:32:40;;;;;;;39.15;27.15;;;;;;;17.33;100.00;102087.50;5033400;28;20045;-63
2023/06/23 06:35:10;;;;;;;34.30;26.40;;;;;;;17.36;100.00;102088.88;5032929;28;20125;-65
2023/06/23 06:37:41;;;;;;;31.20;24.02;;;;;;;17.42;100.00;102093.28;5032923;28;20049;-64
2023/06/23 06:40:11;;;;;;;36.88;26.75;;;;;;;17.43;100.00;102092.97;5034042;28;20037;-66
2023/06/23 06:42:39;;;;;;;37.55;28.33;;;;;;;17.50;100.00;102100.94;5000676;28;20076;-65
2023/06/23 06:45:08;;;;;;;35.10;25.80;;;;;;;17.50;100.00;102094.59;5034581;28;20049;-64
2023/06/23 06:47:43;;;;;;;33.13;25.20;;;;;;;17.42;100.00;102093.28;5033532;28;20564;-64
2023/06/23 06:50:14;;;;;;;37.70;27.13;;;;;;;17.40;100.00;102099.06;5024658;28;20121;-65
2023/06/23 06:52:43;;;;;;;31.48;24.02;;;;;;;17.38;100.00;102098.50;5033161;28;20069;-64
2023/06/23 06:55:18;;;;;;;36.13;27.25;;;;;;;17.40;100.00;102101.81;5031909;28;20438;-62
2023/06/23 06:57:47;;;;;;;34.72;27.77;;;;;;;17.39;100.00;102111.19;5032886;28;20049;-64
2023/06/23 07:00:19;;;;;;;33.10;27.23;;;;;;;17.43;100.00;102112.25;5016702;28;20104;-64
2023/06/23 07:02:47;;;;;;;33.83;26.00;;;;;;;17.49;100.00;102109.50;5033792;28;20073;-63
2023/06/23 07:05:20;;;;;;;35.75;27.80;;;;;;;17.53;100.00;102114.13;5034273;28;20526;-63
2023/06/23 07:07:47;;;;;;;32.38;24.92;;;;;;;17.57;100.00;102119.91;5033680;28;20513;-63
2023/06/23 07:10:15;;;;;;;32.90;24.13;;;;;;;17.57;100.00;102122.69;5032557;28;20053;-65
2023/06/23 07:12:43;;;;;;;28.85;22.50;;;;;;;17.58;100.00;102140.84;4998320;28;20153;-65
2023/06/23 07:15:11;;;;;;;32.38;24.83;;;;;;;17.61;100.00;102140.31;5017372;28;20498;-61
2023/06/23 07:17:39;;;;;;;31.90;23.80;;;;;;;17.64;100.00;102139.72;5033192;28;20049;-64
2023/06/23 07:20:08;;;;;;;32.30;25.08;;;;;;;17.69;100.00;102145.22;5033460;28;20513;-65
2023/06/23 07:22:36;;;;;;;39.78;26.67;;;;;;;17.73;100.00;102140.78;5016314;28;20461;-63
2023/06/23 07:25:05;;;;;;;36.17;27.88;;;;;;;17.79;100.00;102145.16;5032294;28;20053;-64
2023/06/23 07:27:33;;;;;;;35.22;27.73;;;;;;;17.85;100.00;102146.81;5033219;28;20041;-67
2023/06/23 07:30:00;;;;;;;35.03;27.85;;;;;;;17.86;100.00;102142.13;5032125;28;20073;-63
2023/06/23 07:32:28;;;;;;;35.33;27.27;;;;;;;17.82;100.00;102139.13;5031249;28;20140;-63
2023/06/23 07:34:56;;;;;;;38.92;29.48;;;;;;;17.79;100.00;102144.31;5032216;28;20045;-65
2023/06/23 07:37:23;;;;;;;33.53;25.52;;;;;;;17.79;100.00;102147.09;5032325;28;20041;-66
2023/06/23 07:39:51;;;;;;;35.10;26.73;;;;;;;17.82;100.00;102141.88;5033655;28;20432;-64
2023/06/23 07:42:19;;;;;;;32.20;25.23;;;;;;;17.84;100.00;102145.16;5034567;28;20072;-64
2023/06/23 07:44:46;;;;;;;33.05;25.42;;;;;;;17.90;100.00;102147.91;5035404;28;20140;-64
2023/06/23 07:47:14;;;;;;;31.92;24.65;;;;;;;17.95;100.00;102150.63;5036382;28;20037;-64
2023/06/23 07:49:43;;;;;;;30.20;24.50;;;;;;;18.00;100.00;102156.09;5032155;28;20045;-63
2023/06/23 07:52:10;;;;;;;32.63;27.25;;;;;;;18.04;100.00;102155.25;5031644;28;20521;-65
2023/06/23 07:54:39;;;;;;;30.08;23.92;;;;;;;18.09;100.00;102148.88;5039164;28;20408;-63
2023/06/23 07:57:11;;;;;;;32.45;24.77;;;;;;;18.15;100.00;102147.72;5037842;28;20050;-62
2023/06/23 07:59:39;;;;;;;35.42;26.58;;;;;;;18.19;100.00;102157.06;5037007;28;20445;-63
2023/06/23 08:02:07;;;;;;;36.00;25.63;;;;;;;18.20;100.00;102158.69;5035533;28;20096;-63
2023/06/23 08:04:38;;;;;;;31.92;27.15;;;;;;;18.22;100.00;102162.00;5036853;28;20045;-64
2023/06/23 08:07:06;;;;;;;30.95;25.67;;;;;;;18.26;100.00;102152.06;5036300;28;20060;-65
2023/06/23 08:09:34;;;;;;;33.13;28.08;;;;;;;18.28;100.00;102155.34;5036575;28;20185;-64
2023/06/23 08:12:01;;;;;;;37.00;28.70;;;;;;;18.29;100.00;102151.47;5035417;28;20533;-63
2023/06/23 08:14:29;;;;;;;29.67;23.00;;;;;;;18.38;100.00;102150.88;5036444;28;20077;-64
2023/06/23 08:16:57;;;;;;;37.40;27.58;;;;;;;18.42;100.00;102151.91;5036205;28;20120;-64
2023/06/23 08:19:24;;;;;;;32.45;27.65;;;;;;;18.45;100.00;102154.94;5036472;28;20060;-63
2023/06/23 08:21:53;;;;;;;27.98;21.92;;;;;;;18.50;100.00;102156.84;5036112;28;20052;-63
2023/06/23 08:24:20;;;;;;;32.45;22.83;;;;;;;18.55;100.00;102158.72;5035437;28;20401;-63
2023/06/23 08:26:48;;;;;;;32.22;25.42;;;;;;;18.57;100.00;102160.09;5034541;28;20403;-62
2023/06/23 08:29:16;;;;;;;43.60;26.70;;;;;;;18.63;100.00;102158.91;5036206;28;20081;-62
2023/06/23 08:31:43;;;;;;;36.97;25.10;;;;;;;18.63;100.00;102167.19;5034700;28;20058;-63
2023/06/23 08:34:11;;;;;;;36.58;27.63;;;;;;;18.63;100.00;102169.97;5035405;28;20548;-64
2023/06/23 08:36:39;;;;;;;33.40;26.90;;;;;;;18.67;100.00;102168.28;5028846;28;20049;-62
2023/06/23 08:39:08;;;;;;;46.78;27.40;;;;;;;18.72;100.00;102170.97;5035792;28;20386;-61
2023/06/23 08:41:39;;;;;;;38.83;29.38;;;;;;;18.78;100.00;102173.72;5034906;28;20052;-64
2023/06/23 08:44:07;;;;;;;33.70;25.40;;;;;;;18.81;100.00;102173.13;5034728;28;20083;-62
2023/06/23 08:46:35;;;;;;;30.50;23.92;;;;;;;18.87;100.00;102166.47;5034475;28;20055;-64
2023/06/23 08:49:23;;;;;;;29.35;23.48;;;;;;;18.95;100.00;102182.38;5021027;28;20056;-63
2023/06/23 08:51:52;;;;;;;33.13;25.15;;;;;;;18.99;100.00;102179.88;5017934;28;20053;-65
2023/06/23 08:54:19;;;;;;;34.33;28.52;;;;;;;19.09;100.00;102180.59;5031193;28;20049;-63
2023/06/23 08:56:47;;;;;;;42.63;27.98;;;;;;;19.13;100.00;102189.94;5034190;28;20462;-63
2023/06/23 08:59:15;;;;;;;34.80;26.80;;;;;;;19.13;100.00;102183.59;5034111;28;20446;-63
2023/06/23 09:01:43;;;;;;;31.95;24.48;;;;;;;19.16;100.00;102194.06;5033710;28;20417;-63
2023/06/23 09:04:11;;;;;;;25.13;21.95;;;;;;;19.20;100.00;102203.41;5034464;28;20053;-64
2023/06/23 09:06:40;;;;;;;23.33;19.63;;;;;;;19.25;100.00;102216.34;5031550;28;20132;-62
2023/06/23 09:09:08;;;;;;;28.23;23.33;;;;;;;19.30;100.00;102208.81;5035292;28;20110;-63
2023/06/23 09:11:35;;;;;;;27.45;22.83;;;;;;;19.31;100.00;102202.19;5034897;28;20123;-64
2023/06/23 09:14:06;;;;;;;28.70;23.05;;;;;;;19.38;100.00;102215.63;5035318;28;20449;-62
2023/06/23 09:16:34;;;;;;;24.38;19.20;;;;;;;19.42;100.00;102216.72;5034516;28;20065;-62
2023/06/23 09:19:03;;;;;;;22.08;17.45;;;;;;;19.42;100.00;102211.19;5034184;28;20076;-63
2023/06/23 09:21:31;;;;;;;26.98;20.50;;;;;;;19.46;100.00;102217.78;5033776;28;20128;-62
2023/06/23 09:24:04;;;;;;;25.42;18.27;;;;;;;19.50;100.00;102215.22;5017876;28;20049;-63
2023/06/23 09:26:57;;;;;;;23.38;18.95;;;;;;;19.58;100.00;102218.19;5033272;28;20060;-64
2023/06/23 09:29:26;;;;;;;23.75;18.60;;;;;;;19.65;100.00;102217.00;5036322;28;20068;-64
2023/06/23 09:31:55;;;;;;;23.33;17.80;;;;;;;19.65;100.00;102219.75;5033799;28;20050;-63
2023/06/23 09:34:27;;;;;;;22.20;16.35;;;;;;;19.67;100.00;102223.03;5034804;28;20042;-62
2023/06/23 09:37:11;;;;;;;21.52;17.45;;;;;;;19.71;100.00;102233.25;5033914;28;20049;-63
2023/06/23 09:39:41;;;;;;;25.48;18.08;;;;;;;19.76;100.00;102235.13;5033397;28;20091;-62
2023/06/23 09:42:13;;;;;;;22.73;15.18;;;;;;;19.79;100.00;102235.38;5034648;28;20045;-64
2023/06/23 09:44:42;;;;;;;24.10;17.45;;;;;;;19.85;100.00;102230.59;5034897;28;20053;-63
2023/06/23 09:47:11;;;;;;;22.08;15.55;;;;;;;19.93;100.00;102238.22;5034179;28;20073;-63
2023/06/23 09:49:40;;;;;;;22.63;16.70;;;;;;;20.02;100.00;102241.16;5017417;28;20071;-62
2023/06/23 09:52:11;;;;;;;20.80;15.27;;;;;;;20.07;100.00;102238.31;5033216;28;20045;-64
2023/06/23 09:54:40;;;;;;;19.60;15.57;;;;;;;20.11;100.00;102233.03;5034813;28;20037;-64
2023/06/23 09:57:18;;;;;;;19.60;15.43;;;;;;;20.13;100.00;102237.16;5033104;28;20045;-65
2023/06/23 09:59:51;;;;;;;16.33;12.40;;;;;;;20.11;99.84;102230.25;5031137;28;20116;-63
2023/06/23 10:02:29;;;;;;;20.17;13.85;;;;;;;20.18;98.22;102239.84;5034089;28;20120;-63
2023/06/23 10:05:05;;;;;;;18.60;13.30;;;;;;;20.25;97.84;102225.59;5035667;28;20056;-63
2023/06/23 10:07:34;;;;;;;17.83;13.88;;;;;;;20.31;98.52;102238.25;5037434;28;20106;-63
2023/06/23 10:10:04;;;;;;;19.55;12.60;;;;;;;20.38;94.07;102230.41;5037665;28;20132;-65
2023/06/23 10:12:49;;;;;;;18.23;13.40;;;;;;;20.37;94.02;102226.00;5029845;28;20053;-63
2023/06/23 10:15:17;;;;;;;17.60;13.55;;;;;;;20.41;93.13;102227.03;5034315;28;20041;-62
2023/06/23 10:17:45;;;;;;;20.02;13.60;;;;;;;20.49;94.02;102227.47;5039283;28;20516;-65
2023/06/23 10:20:13;;;;;;;16.95;13.65;;;;;;;20.55;92.40;102227.13;5040979;28;20068;-64
2023/06/23 10:22:42;;;;;;;19.75;13.75;;;;;;;20.59;92.94;102225.41;5038913;28;20097;-63
2023/06/23 10:25:12;;;;;;;18.40;11.45;;;;;;;20.70;91.67;102223.28;5037458;28;20060;-62
2023/06/23 10:27:42;;;;;;;16.25;11.45;;;;;;;20.80;91.59;102223.09;5036151;28;20548;-61
2023/06/23 10:30:11;;;;;;;19.85;12.63;;;;;;;20.79;90.66;102238.09;5040531;28;20084;-65
2023/06/23 10:32:42;;;;;;;19.02;12.90;;;;;;;20.78;90.41;102233.69;5043832;28;20055;-64
2023/06/23 10:35:11;;;;;;;17.42;11.27;;;;;;;20.77;88.01;102228.44;5020588;28;20045;-65
2023/06/23 10:37:40;;;;;;;14.23;10.95;;;;;;;20.82;90.18;102233.88;5016799;28;20410;-64
2023/06/23 10:40:18;;;;;;;17.02;12.48;;;;;;;20.86;88.92;102226.63;5018065;28;20144;-65
2023/06/23 10:42:49;;;;;;;14.57;11.13;;;;;;;20.85;91.35;102225.81;5032413;28;20068;-63
2023/06/23 10:45:17;;;;;;;17.00;10.60;;;;;;;20.94;91.94;102222.31;5049527;28;20128;-65
2023/06/23 10:47:45;;;;;;;16.05;11.40;;;;;;;20.98;90.22;102234.44;5033688;28;20390;-65
2023/06/23 10:50:14;;;;;;;18.75;10.10;;;;;;;21.00;87.08;102238.56;5032195;28;20049;-64
2023/06/23 10:52:44;;;;;;;16.23;10.63;;;;;;;21.02;86.23;102239.06;4335371;28;10000703;-65
2023/06/23 10:55:33;;;;;;;17.50;11.45;;;;;;;21.09;87.84;102244.19;5009551;28;20365;-63
2023/06/23 10:58:08;;;;;;;15.27;11.68;;;;;;;21.11;89.39;102233.63;5008921;28;20049;-65
2023/06/23 11:00:36;;;;;;;17.00;12.05;;;;;;;21.10;89.32;102220.91;5028377;28;20072;-65
2023/06/23 11:03:09;;;;;;;15.95;11.55;;;;;;;21.18;91.18;102230.47;5027484;28;20405;-65
2023/06/23 11:05:41;;;;;;;12.85;9.43;;;;;;;21.25;88.21;102234.47;5028338;28;20049;-64
2023/06/23 11:08:12;;;;;;;13.93;9.10;;;;;;;21.35;85.30;102243.75;5030156;28;20292;-64
2023/06/23 11:10:59;;;;;;;12.13;8.30;;;;;;;21.38;82.46;102232.88;5028762;28;20033;-64
2023/06/23 11:13:46;;;;;;;13.75;9.02;;;;;;;21.41;84.44;102248.91;5023107;28;20053;-64
2023/06/23 11:16:19;;;;;;;11.18;7.40;;;;;;;21.42;81.23;102252.50;5029150;28;20458;-64
2023/06/23 11:18:49;;;;;;;14.07;6.90;;;;;;;21.44;78.23;102253.84;5028235;28;20087;-65
2023/06/23 11:21:37;;;;;;;11.45;7.90;;;;;;;21.47;80.01;102260.72;5027881;28;20053;-64